createdAt,value
2016-03-02T00:02:25.843Z,-0.5
2016-03-02T00:05:27.711Z,-0.6
2016-03-02T00:08:38.953Z,-0.6
2016-03-02T00:11:50.760Z,-0.6
2016-03-02T00:15:00.863Z,-0.6
2016-03-02T00:18:12.433Z,-0.6
2016-03-02T00:21:29.222Z,-0.5
2016-03-02T00:24:30.965Z,-0.5
2016-03-02T00:27:42.613Z,-0.4
2016-03-02T00:30:50.562Z,-0.3
2016-03-02T00:34:03.929Z,-0.2
2016-03-02T00:37:20.813Z,-0.2
2016-03-02T00:40:27.524Z,-0.1
2016-03-02T00:43:29.328Z,-0.1
2016-03-02T00:46:41.102Z,0
2016-03-02T00:49:50.144Z,0
2016-03-02T00:52:59.386Z,0
2016-03-02T00:56:11.207Z,0
2016-03-02T00:59:27.840Z,0
2016-03-02T01:02:29.615Z,0.1
2016-03-02T01:05:38.232Z,0.1
2016-03-02T01:08:50.148Z,0.2
2016-03-02T01:12:01.985Z,0.2
2016-03-02T01:15:11.977Z,0.2
2016-03-02T01:18:28.658Z,0.2
2016-03-02T01:21:30.352Z,0.2
2016-03-02T01:24:39.469Z,0.3
2016-03-02T01:27:49.449Z,0.3
2016-03-02T01:30:59.692Z,0.3
2016-03-02T01:34:07.309Z,0.3
2016-03-02T01:37:26.052Z,0.3
2016-03-02T01:40:27.857Z,0.3
2016-03-02T01:43:39.412Z,0.3
2016-03-02T01:46:51.236Z,0.4
2016-03-02T01:50:03.103Z,0.4
2016-03-02T01:53:12.267Z,0.5
2016-03-02T01:56:26.337Z,0.5
2016-03-02T01:59:28.032Z,0.5
2016-03-02T02:02:39.603Z,0.5
2016-03-02T02:05:51.197Z,0.5
2016-03-02T02:09:03.022Z,0.5
2016-03-02T02:12:14.952Z,0.5
2016-03-02T02:15:29.977Z,0.5
2016-03-02T02:18:31.875Z,0.5
2016-03-02T02:21:43.774Z,0.5
2016-03-02T02:24:55.504Z,0.5
2016-03-02T02:28:07.371Z,0.5
2016-03-02T02:31:22.019Z,0.5
2016-03-02T02:34:28.762Z,0.6
2016-03-02T02:37:30.519Z,0.7
2016-03-02T02:40:39.903Z,0.6
2016-03-02T02:43:51.600Z,0.6
2016-03-02T02:47:02.952Z,0.6
2016-03-02T02:50:14.649Z,0.6
2016-03-02T02:53:29.391Z,0.7
2016-03-02T02:56:31.008Z,0.8
2016-03-02T02:59:39.923Z,0.8
2016-03-02T03:02:51.293Z,0.8
2016-03-02T03:05:57.910Z,0.7
2016-03-02T03:09:11.606Z,0.7
2016-03-02T03:12:28.285Z,0.7
2016-03-02T03:15:29.981Z,0.7
2016-03-02T03:18:39.505Z,0.7
2016-03-02T03:21:49.312Z,0.7
2016-03-02T03:24:57.383Z,0.8
2016-03-02T03:28:09.282Z,0.7
2016-03-02T03:31:23.837Z,0.7
2016-03-02T03:34:25.610Z,0.8
2016-03-02T03:37:37.260Z,0.7
2016-03-02T03:40:49.098Z,0.7
2016-03-02T03:44:01.044Z,0.7
2016-03-02T03:47:10.536Z,0.8
2016-03-02T03:50:27.653Z,0.8
2016-03-02T03:53:29.318Z,0.8
2016-03-02T03:56:41.138Z,0.8
2016-03-02T03:59:53.149Z,0.8
2016-03-02T04:03:04.876Z,0.9
2016-03-02T04:06:21.696Z,0.9
2016-03-02T04:09:28.642Z,0.9
2016-03-02T04:12:30.557Z,0.9
2016-03-02T04:15:41.986Z,0.9
2016-03-02T04:18:53.950Z,0.9
2016-03-02T04:22:05.943Z,0.9
2016-03-02T04:25:22.419Z,0.9
2016-03-02T04:28:29.335Z,0.9
2016-03-02T04:31:31.232Z,0.9
2016-03-02T04:34:40.287Z,0.9
2016-03-02T04:37:51.939Z,0.9
2016-03-02T04:41:03.822Z,0.9
2016-03-02T04:44:15.643Z,1
2016-03-02T04:47:25.228Z,1
2016-03-02T04:50:38.939Z,1
2016-03-02T04:53:47.888Z,1
2016-03-02T04:56:58.130Z,1
2016-03-02T05:00:07.029Z,1
2016-03-02T05:03:13.538Z,1
2016-03-02T05:06:27.467Z,1.1
2016-03-02T05:09:37.772Z,1.1
2016-03-02T05:12:49.706Z,1.1
2016-03-02T05:16:01.244Z,1
2016-03-02T05:19:13.049Z,1.1
2016-03-02T05:22:29.588Z,1
2016-03-02T05:25:31.894Z,1
2016-03-02T05:28:43.949Z,1
2016-03-02T05:31:53.677Z,1
2016-03-02T05:35:04.061Z,1
2016-03-02T05:38:14.382Z,1.1
2016-03-02T05:41:26.374Z,1.1
2016-03-02T05:44:36.195Z,1.1
2016-03-02T05:47:48.424Z,1.1
2016-03-02T05:50:59.011Z,1
2016-03-02T05:54:09.003Z,1
2016-03-02T05:57:28.432Z,1
2016-03-02T06:00:30.737Z,1.1
2016-03-02T06:03:43.042Z,1.1
2016-03-02T06:06:55.428Z,1.1
2016-03-02T06:10:07.748Z,1.2
2016-03-02T06:13:24.695Z,1.2
2016-03-02T06:16:27.000Z,1.2
2016-03-02T06:19:38.633Z,1.2
2016-03-02T06:22:50.549Z,1.3
2016-03-02T06:26:02.494Z,1.4
2016-03-02T06:29:13.128Z,1.4
2016-03-02T06:32:28.011Z,1.4
2016-03-02T06:35:30.113Z,1.4
2016-03-02T06:38:42.230Z,1.5
2016-03-02T06:41:54.256Z,1.6
2016-03-02T06:45:04.623Z,1.7
2016-03-02T06:48:21.898Z,1.7
2016-03-02T06:51:29.233Z,1.7
2016-03-02T06:54:31.555Z,1.8
2016-03-02T06:57:42.438Z,1.8
2016-03-02T07:00:58.933Z,1.9
2016-03-02T07:04:06.894Z,1.9
2016-03-02T07:07:15.402Z,1.9
2016-03-02T07:10:27.379Z,2
2016-03-02T07:13:36.357Z,2.1
2016-03-02T07:16:48.724Z,2.2
2016-03-02T07:20:01.125Z,2.4
2016-03-02T07:23:13.555Z,2.4
2016-03-02T07:26:27.703Z,2.5
2016-03-02T07:29:30.087Z,2.4
2016-03-02T07:32:38.564Z,2.4
2016-03-02T07:35:50.932Z,2.4
2016-03-02T07:39:03.392Z,2.4
2016-03-02T07:42:15.200Z,2.4
2016-03-02T07:45:27.458Z,2.4
2016-03-02T07:48:39.748Z,2.4
2016-03-02T07:51:52.021Z,2.4
2016-03-02T07:55:01.373Z,2.4
2016-03-02T07:58:13.897Z,2.4
2016-03-02T08:01:26.204Z,2.4
2016-03-02T08:04:35.791Z,2.4
2016-03-02T08:07:48.299Z,2.4
2016-03-02T08:11:00.682Z,2.5
2016-03-02T08:14:12.909Z,2.5
2016-03-02T08:17:30.091Z,2.4
2016-03-02T08:20:32.522Z,2.5
2016-03-02T08:23:41.592Z,2.5
2016-03-02T08:26:51.756Z,2.6
2016-03-02T08:30:04.374Z,2.7
2016-03-02T08:33:21.712Z,2.8
2016-03-02T08:36:29.064Z,2.8
2016-03-02T08:39:31.517Z,2.9
2016-03-02T08:42:42.531Z,3.1
2016-03-02T08:45:54.851Z,3.2
2016-03-02T08:49:07.302Z,3.3
2016-03-02T08:52:24.617Z,3.3
2016-03-02T08:55:27.217Z,3.3
2016-03-02T08:58:39.100Z,3.3
2016-03-02T09:01:51.654Z,3.2
2016-03-02T09:05:04.224Z,3.3
2016-03-02T09:08:14.311Z,3.4
2016-03-02T09:11:24.962Z,3.5
2016-03-02T09:14:39.314Z,3.7
2016-03-02T09:17:51.901Z,3.9
2016-03-02T09:21:02.831Z,4
2016-03-02T09:24:15.603Z,4.3
2016-03-02T09:27:30.880Z,4.6
2016-03-02T09:30:33.764Z,4.8
2016-03-02T09:33:46.396Z,5
2016-03-02T09:36:59.123Z,5.1
2016-03-02T09:40:11.163Z,5.2
2016-03-02T09:43:26.236Z,5.4
2016-03-02T09:46:29.072Z,5.5
2016-03-02T09:49:40.392Z,5.6
2016-03-02T09:52:52.542Z,6.3
2016-03-02T09:56:04.408Z,6.4
2016-03-02T09:59:13.604Z,6.4
2016-03-02T10:02:31.225Z,6.7
2016-03-02T10:05:34.013Z,7
2016-03-02T10:08:46.506Z,7.1
2016-03-02T10:11:57.687Z,7.4
2016-03-02T10:15:07.537Z,7.4
2016-03-02T10:18:25.267Z,7.4
2016-03-02T10:21:27.948Z,7.4
2016-03-02T10:24:40.190Z,7.3
2016-03-02T10:27:52.979Z,7.3
2016-03-02T10:31:04.441Z,7.5
2016-03-02T10:34:14.808Z,8
2016-03-02T10:37:29.928Z,8.3
2016-03-02T10:40:32.796Z,8.5
2016-03-02T10:43:45.429Z,8.7
2016-03-02T10:46:56.187Z,8.9
2016-03-02T10:50:06.804Z,9.2
2016-03-02T10:53:22.765Z,9.4
2016-03-02T10:56:30.886Z,9.6
2016-03-02T10:59:33.847Z,9.5
2016-03-02T11:02:46.667Z,9.4
2016-03-02T11:05:57.941Z,9.5
2016-03-02T11:09:10.808Z,9.6
2016-03-02T11:12:28.616Z,9.6
2016-03-02T11:15:31.718Z,9.7
2016-03-02T11:18:44.679Z,9.6
2016-03-02T11:21:57.812Z,9.6
2016-03-02T11:25:10.742Z,9.7
2016-03-02T11:28:27.266Z,9.6
2016-03-02T11:31:30.386Z,9.6
2016-03-02T11:34:40.566Z,9.6
2016-03-02T11:37:53.214Z,9.4
2016-03-02T11:41:05.879Z,9.3
2016-03-02T11:44:23.637Z,9.2
2016-03-02T11:47:31.726Z,9.3
2016-03-02T11:50:34.765Z,9.2
2016-03-02T11:53:45.367Z,9.2
2016-03-02T11:57:00.422Z,9.3
2016-03-02T12:00:11.961Z,9.2
2016-03-02T12:03:29.595Z,9.1
2016-03-02T12:06:32.554Z,9.1
2016-03-02T12:09:45.453Z,8.9
2016-03-02T12:12:58.180Z,8.7
2016-03-02T12:16:10.985Z,8.5
2016-03-02T12:19:28.649Z,8.3
2016-03-02T12:22:31.533Z,8.1
2016-03-02T12:25:44.386Z,7.9
2016-03-02T12:28:54.676Z,7.7
2016-03-02T12:32:07.512Z,7.8
2016-03-02T12:35:23.332Z,8
2016-03-02T12:38:31.232Z,8.2
2016-03-02T12:41:34.098Z,8.4
2016-03-02T12:44:47.031Z,8.3
2016-03-02T12:47:59.650Z,8
2016-03-02T12:51:10.533Z,8
2016-03-02T12:54:26.743Z,7.9
2016-03-02T12:57:29.642Z,7.7
2016-03-02T13:00:38.369Z,7.6
2016-03-02T13:03:53.083Z,7.6
2016-03-02T13:07:05.794Z,7.5
2016-03-02T13:10:22.349Z,7.5
2016-03-02T13:13:30.092Z,7.5
2016-03-02T13:16:32.943Z,7.5
2016-03-02T13:19:45.451Z,7.5
2016-03-02T13:22:57.978Z,7.5
2016-03-02T13:26:08.830Z,7.6
2016-03-02T13:29:26.681Z,7.7
2016-03-02T13:32:29.675Z,7.7
2016-03-02T13:35:39.323Z,7.7
2016-03-02T13:38:52.034Z,7.7
2016-03-02T13:42:04.764Z,7.8
2016-03-02T13:45:15.850Z,7.9
2016-03-02T13:48:28.701Z,8
2016-03-02T13:51:41.569Z,7.9
2016-03-02T13:54:51.499Z,7.9
2016-03-02T13:58:06.588Z,7.7
2016-03-02T14:01:16.940Z,7.7
2016-03-02T14:04:28.463Z,7.6
2016-03-02T14:07:41.128Z,7.6
2016-03-02T14:10:50.575Z,7.6
2016-03-02T14:14:03.038Z,7.5
2016-03-02T14:17:15.828Z,7.5
2016-03-02T14:20:28.617Z,7.5
2016-03-02T14:23:41.375Z,7.5
2016-03-02T14:26:51.493Z,7.5
2016-03-02T14:30:04.695Z,7.6
2016-03-02T14:33:15.833Z,7.5
2016-03-02T14:36:28.216Z,7.6
2016-03-02T14:39:40.443Z,7.5
2016-03-02T14:42:51.076Z,7.5
2016-03-02T14:46:05.538Z,7.4
2016-03-02T14:49:15.829Z,7.4
2016-03-02T14:52:27.486Z,7.4
2016-03-02T14:55:40.338Z,7.4
2016-03-02T14:58:52.941Z,7.3
2016-03-02T15:02:04.964Z,7.2
2016-03-02T15:05:22.803Z,7.2
2016-03-02T15:08:30.522Z,7.1
2016-03-02T15:11:33.248Z,7.1
2016-03-02T15:14:45.898Z,7.1
2016-03-02T15:17:58.328Z,7.1
2016-03-02T15:21:10.932Z,7.1
2016-03-02T15:24:27.205Z,7.1
2016-03-02T15:27:29.885Z,7.1
2016-03-02T15:30:42.627Z,7.1
2016-03-02T15:33:52.746Z,7.1
2016-03-02T15:37:05.238Z,7
2016-03-02T15:40:22.843Z,6.9
2016-03-02T15:43:30.616Z,6.9
2016-03-02T15:46:33.234Z,6.8
2016-03-02T15:49:45.726Z,6.8
2016-03-02T15:52:57.141Z,6.8
2016-03-02T15:56:09.320Z,6.8
2016-03-02T15:59:23.081Z,6.8
2016-03-02T16:02:30.777Z,6.7
2016-03-02T16:05:33.301Z,6.7
2016-03-02T16:08:44.574Z,6.7
2016-03-02T16:11:55.301Z,6.6
2016-03-02T16:15:04.950Z,6.5
2016-03-02T16:18:16.803Z,6.3
2016-03-02T16:21:29.015Z,6
2016-03-02T16:24:39.742Z,5.7
2016-03-02T16:27:52.297Z,5.5
2016-03-02T16:31:03.649Z,5.2
2016-03-02T16:34:15.985Z,4.9
2016-03-02T16:37:28.933Z,4.6
2016-03-02T16:40:39.082Z,4.3
2016-03-02T16:43:51.637Z,4.2
2016-03-02T16:47:04.161Z,4.1
2016-03-02T16:50:16.622Z,3.9
2016-03-02T16:53:28.758Z,3.8
2016-03-02T16:56:37.751Z,3.8
2016-03-02T16:59:50.181Z,3.8
2016-03-02T17:03:00.844Z,3.7
2016-03-02T17:06:12.399Z,3.7
2016-03-02T17:09:28.786Z,3.7
2016-03-02T17:12:31.324Z,3.6
2016-03-02T17:15:43.958Z,3.5
2016-03-02T17:18:56.373Z,3.5
2016-03-02T17:22:08.771Z,3.4
2016-03-02T17:25:26.107Z,3.4
2016-03-02T17:28:28.537Z,3.4
2016-03-02T17:31:39.689Z,3.3
2016-03-02T17:34:52.197Z,3.3
2016-03-02T17:38:01.705Z,3.3
2016-03-02T17:41:11.494Z,3.2
2016-03-02T17:44:28.807Z,3.2
2016-03-02T17:47:29.188Z,3.2
2016-03-02T17:50:43.645Z,3.2
2016-03-02T17:53:52.221Z,3.2
2016-03-02T17:57:03.100Z,3.2
2016-03-02T18:00:15.309Z,3.1
2016-03-02T18:03:29.830Z,3.1
2016-03-02T18:06:32.212Z,3
2016-03-02T18:09:42.954Z,3
2016-03-02T18:12:52.997Z,2.9
2016-03-02T18:16:05.426Z,2.9
2016-03-02T18:19:16.403Z,2.8
2016-03-02T18:22:31.396Z,2.8
2016-03-02T18:25:33.716Z,2.8
2016-03-02T18:28:45.912Z,2.7
2016-03-02T18:31:57.281Z,2.6
2016-03-02T18:35:09.743Z,2.6
2016-03-02T18:38:24.377Z,2.5
2016-03-02T18:41:31.649Z,2.5
2016-03-02T18:44:34.143Z,2.4
2016-03-02T18:47:45.432Z,2.4
2016-03-02T18:50:57.895Z,2.4
2016-03-02T18:54:10.044Z,2.3
2016-03-02T18:57:27.161Z,2.3
2016-03-02T19:00:29.544Z,2.2
2016-03-02T19:03:41.334Z,2.2
2016-03-02T19:06:53.511Z,2.1
2016-03-02T19:10:06.020Z,2.1
2016-03-02T19:13:15.559Z,2
2016-03-02T19:16:30.754Z,1.9
2016-03-02T19:19:33.138Z,1.9
2016-03-02T19:22:44.818Z,1.9
2016-03-02T19:25:52.920Z,1.8
2016-03-02T19:29:07.476Z,1.8
2016-03-02T19:32:15.517Z,1.7
2016-03-02T19:35:29.540Z,1.7
2016-03-02T19:38:38.970Z,1.7
2016-03-02T19:41:51.041Z,1.7
2016-03-02T19:45:03.208Z,1.7
2016-03-02T19:48:15.215Z,1.6
2016-03-02T19:51:32.255Z,1.7
2016-03-02T19:54:32.498Z,1.6
2016-03-02T19:57:45.818Z,1.6
2016-03-02T20:00:57.937Z,1.6
2016-03-02T20:04:10.212Z,1.5
2016-03-02T20:07:27.579Z,1.5
2016-03-02T20:10:29.869Z,1.4
2016-03-02T20:13:41.783Z,1.4
2016-03-02T20:16:53.932Z,1.4
2016-03-02T20:20:06.130Z,1.4
2016-03-02T20:23:18.435Z,1.4
2016-03-02T20:26:33.224Z,1.4
2016-03-02T20:29:35.498Z,1.3
2016-03-02T20:32:44.788Z,1.3
2016-03-02T20:35:57.189Z,1.3
2016-03-02T20:39:09.462Z,1.3
2016-03-02T20:42:19.439Z,1.4
2016-03-02T20:45:30.572Z,1.4
2016-03-02T20:48:40.611Z,1.4
2016-03-02T20:51:54.869Z,1.4
2016-03-02T20:55:06.927Z,1.5
2016-03-02T20:58:17.841Z,1.5
2016-03-02T21:01:33.443Z,1.5
2016-03-02T21:04:35.795Z,1.6
2016-03-02T21:07:48.194Z,1.6
2016-03-02T21:10:58.312Z,1.6
2016-03-02T21:14:10.947Z,1.6
2016-03-02T21:17:30.408Z,1.5
2016-03-02T21:20:32.808Z,1.5
2016-03-02T21:23:45.049Z,1.5
2016-03-02T21:26:55.027Z,1.5
2016-03-02T21:30:05.131Z,1.4
2016-03-02T21:33:19.374Z,1.5
2016-03-02T21:36:30.882Z,1.5
2016-03-02T21:39:40.920Z,1.5
2016-03-02T21:42:53.101Z,1.5
2016-03-02T21:46:05.486Z,1.5
2016-03-02T21:49:17.932Z,1.5
2016-03-02T21:52:35.440Z,1.5
2016-03-02T21:55:37.854Z,1.5
2016-03-02T21:58:49.596Z,1.5
2016-03-02T22:02:01.730Z,1.5
2016-03-02T22:05:14.101Z,1.5
2016-03-02T22:08:30.077Z,1.6
2016-03-02T22:11:37.523Z,1.5
2016-03-02T22:14:39.921Z,1.5
2016-03-02T22:17:50.742Z,1.5
2016-03-02T22:20:59.734Z,1.5
2016-03-02T22:24:09.822Z,1.4
2016-03-02T22:27:22.050Z,1.4
2016-03-02T22:30:37.136Z,1.4
2016-03-02T22:33:39.441Z,1.4
2016-03-02T22:36:51.746Z,1.4
2016-03-02T22:40:00.832Z,1.4
2016-03-02T22:43:11.265Z,1.4
2016-03-02T22:46:23.382Z,1.3
2016-03-02T22:49:35.719Z,1.3
2016-03-02T22:52:46.305Z,1.3
2016-03-02T22:55:55.469Z,1.3
2016-03-02T22:59:06.664Z,1.3
2016-03-02T23:02:18.144Z,1.3
2016-03-02T23:05:26.996Z,1.3
2016-03-02T23:08:37.348Z,1.3
2016-03-02T23:11:49.574Z,1.3
2016-03-02T23:14:58.692Z,1.3
2016-03-02T23:18:10.968Z,1.3
2016-03-02T23:21:23.164Z,1.3
2016-03-02T23:24:40.469Z,1.3
2016-03-02T23:27:42.961Z,1.3
2016-03-02T23:30:52.986Z,1.3
2016-03-02T23:34:04.883Z,1.3
2016-03-02T23:37:17.191Z,1.3
2016-03-02T23:40:34.449Z,1.3
2016-03-02T23:43:41.848Z,1.3
2016-03-02T23:46:44.059Z,1.3
2016-03-02T23:49:53.458Z,1.3
2016-03-02T23:53:05.639Z,1.3
2016-03-02T23:56:15.024Z,1.2
2016-03-02T23:59:27.298Z,1.2
